KBRD/BRD METAR and TAF weather

Enter ICAO airport designator
Station Type Date Time Source
KBRD METAR 2020/09/19 01:53 UTC NOAA

KBRD 190153Z AUTO 16004KT 10SM CLR 08/04 A3029 RMK AO2 SLP266 T00780039


Station Type Date Time Source
KBRD Decoded METAR 2020/09/19 01:53 UTC NOAA

BRAINERD-CROW WING CO AIRPORT , MN, United States (KBRD) 46-24N 94-08W 372M
Sep 18, 2020 - 09:53 PM EDT / 2020.09.19 0153 UTC
Wind: from the SSE (160 degrees) at 5 MPH (4 KT):0
Visibility: 10 mile(s):0
Sky conditions: clear
Temperature: 46.0 F (7.8 C)
Dew Point: 39.0 F (3.9 C)
Relative Humidity: 76%
Pressure (altimeter): 30.29 in. Hg (1025 hPa)
ob: KBRD 190153Z AUTO 16004KT 10SM CLR 08/04 A3029 RMK AO2 SLP266 T00780039
cycle: 2

Station Type Date Time Source
KBRD TAF 2020/09/18 18:24 UTC NOAA

TAF KBRD 181723Z 1818/1918 21007KT P6SM SCT200

Example: see airport list